createdAt,value
2023-01-19T00:00:58.118Z,4.10
2023-01-19T00:03:25.230Z,4.03
2023-01-19T00:05:52.747Z,4.00
2023-01-19T00:08:19.941Z,4.30
2023-01-19T00:10:51.107Z,4.18
2023-01-19T00:13:18.714Z,4.53
2023-01-19T00:15:45.794Z,4.30
2023-01-19T00:18:13.077Z,4.55
2023-01-19T00:20:41.259Z,4.80
2023-01-19T00:23:09.570Z,4.60
2023-01-19T00:25:42.479Z,4.57
2023-01-19T00:28:15.454Z,4.72
2023-01-19T00:30:43.526Z,4.38
2023-01-19T00:33:14.565Z,4.68
2023-01-19T00:35:42.762Z,4.32
2023-01-19T00:38:11.279Z,4.57
2023-01-19T00:40:38.530Z,4.28
2023-01-19T00:43:05.655Z,4.30
2023-01-19T00:45:34.120Z,4.50
2023-01-19T00:48:01.502Z,4.35
2023-01-19T00:50:30.945Z,4.00
2023-01-19T00:53:01.461Z,4.75
2023-01-19T00:55:30.117Z,4.55
2023-01-19T00:57:57.960Z,4.57
2023-01-19T01:00:25.633Z,4.45
2023-01-19T01:02:53.992Z,4.40
2023-01-19T01:05:21.715Z,4.53
2023-01-19T01:07:49.872Z,4.68
2023-01-19T01:10:21.710Z,4.50
2023-01-19T01:12:54.905Z,5.75
2023-01-19T01:15:27.603Z,5.47
2023-01-19T01:17:56.022Z,5.35
2023-01-19T01:20:28.138Z,5.43
2023-01-19T01:22:56.797Z,4.93
2023-01-19T01:25:27.443Z,5.35
2023-01-19T01:27:55.232Z,5.30
2023-01-19T01:30:23.205Z,5.88
2023-01-19T01:32:50.922Z,5.75
2023-01-19T01:35:18.495Z,6.22
2023-01-19T01:37:45.562Z,5.80
2023-01-19T01:40:16.881Z,6.30
2023-01-19T01:42:44.230Z,5.78
2023-01-19T01:45:40.807Z,5.95
2023-01-19T01:48:24.632Z,6.00
2023-01-19T01:51:17.991Z,6.25
2023-01-19T01:53:49.627Z,6.57
2023-01-19T01:58:49.948Z,6.05
2023-01-19T02:01:35.994Z,6.53
2023-01-19T02:04:03.261Z,6.47
2023-01-19T02:06:30.405Z,6.13
2023-01-19T02:09:28.300Z,6.18
2023-01-19T02:12:14.234Z,6.40
2023-01-19T02:14:41.335Z,7.45
2023-01-19T02:17:08.416Z,7.18
2023-01-19T02:19:42.735Z,7.53
2023-01-19T02:22:39.011Z,7.25
2023-01-19T02:25:07.247Z,8.73
2023-01-19T02:27:34.857Z,8.88
2023-01-19T02:30:03.795Z,7.28
2023-01-19T02:32:31.032Z,7.95
2023-01-19T02:34:58.557Z,7.75
2023-01-19T02:37:26.920Z,7.93
2023-01-19T02:39:58.401Z,7.97
2023-01-19T02:42:44.597Z,7.95
2023-01-19T02:45:14.535Z,7.70
2023-01-19T02:47:46.230Z,8.20
2023-01-19T02:50:56.052Z,8.32
2023-01-19T02:54:04.659Z,7.60
2023-01-19T02:56:46.757Z,8.07
2023-01-19T02:59:31.717Z,7.93
2023-01-19T03:02:29.082Z,8.52
2023-01-19T03:05:23.255Z,7.63
2023-01-19T03:08:09.319Z,7.68
2023-01-19T03:10:55.837Z,6.70
2023-01-19T03:13:50.371Z,7.30
2023-01-19T03:16:55.217Z,7.20
2023-01-19T03:19:33.622Z,7.40
2023-01-19T03:22:10.816Z,7.70
2023-01-19T03:24:43.415Z,7.00
2023-01-19T03:27:29.543Z,7.65
2023-01-19T03:30:11.888Z,8.95
2023-01-19T03:32:48.037Z,8.43
2023-01-19T03:35:18.439Z,8.68
2023-01-19T03:37:49.044Z,8.45
2023-01-19T03:40:16.717Z,8.03
2023-01-19T03:42:45.110Z,8.68
2023-01-19T03:45:13.978Z,8.13
2023-01-19T03:47:41.504Z,8.00
2023-01-19T03:50:21.062Z,8.30
2023-01-19T03:53:07.911Z,7.18
2023-01-19T03:55:38.100Z,6.57
2023-01-19T03:58:05.357Z,6.47
2023-01-19T04:00:33.546Z,6.07
2023-01-19T04:03:01.169Z,5.70
2023-01-19T04:05:29.525Z,5.78
2023-01-19T04:07:56.608Z,5.53
2023-01-19T04:10:24.428Z,5.40
2023-01-19T04:13:01.564Z,5.10
2023-01-19T04:15:30.745Z,5.22
2023-01-19T04:17:59.437Z,5.28
2023-01-19T04:20:28.288Z,5.28
2023-01-19T04:22:59.510Z,4.90
2023-01-19T04:25:28.370Z,4.82
2023-01-19T04:27:58.475Z,5.15
2023-01-19T04:30:26.204Z,4.90
2023-01-19T04:32:55.590Z,4.70
2023-01-19T04:35:23.025Z,4.70
2023-01-19T04:37:50.138Z,5.07
2023-01-19T04:40:17.525Z,4.60
2023-01-19T04:42:45.806Z,5.13
2023-01-19T04:45:14.289Z,5.00
2023-01-19T04:47:42.902Z,5.10
2023-01-19T04:50:11.852Z,5.40
2023-01-19T04:52:39.097Z,5.15
2023-01-19T04:55:07.718Z,5.28
2023-01-19T04:57:35.103Z,5.50
2023-01-19T05:00:03.162Z,6.00
2023-01-19T05:02:30.244Z,6.25
2023-01-19T05:04:57.376Z,5.40
2023-01-19T05:07:24.390Z,5.95
2023-01-19T05:09:51.550Z,6.32
2023-01-19T05:12:18.688Z,6.15
2023-01-19T05:14:45.856Z,6.15
2023-01-19T05:17:13.332Z,6.32
2023-01-19T05:19:40.483Z,6.30
2023-01-19T05:22:07.559Z,6.95
2023-01-19T05:24:34.709Z,6.53
2023-01-19T05:27:02.119Z,6.55
2023-01-19T05:29:29.225Z,6.75
2023-01-19T05:31:56.410Z,7.35
2023-01-19T05:34:23.572Z,7.10
2023-01-19T05:36:51.143Z,6.95
2023-01-19T05:39:18.260Z,7.57
2023-01-19T05:41:45.644Z,6.90
2023-01-19T05:44:13.558Z,7.10
2023-01-19T05:46:41.332Z,7.25
2023-01-19T05:49:08.607Z,7.28
2023-01-19T05:51:38.529Z,7.10
2023-01-19T05:54:06.538Z,7.00
2023-01-19T05:56:34.683Z,6.43
2023-01-19T05:59:02.502Z,6.68
2023-01-19T06:01:29.710Z,6.75
2023-01-19T06:03:56.844Z,6.20
2023-01-19T06:06:23.914Z,6.05
2023-01-19T06:08:50.988Z,5.90
2023-01-19T06:11:18.105Z,5.88
2023-01-19T06:13:45.205Z,5.28
2023-01-19T06:16:12.516Z,5.22
2023-01-19T06:18:39.622Z,4.97
2023-01-19T06:21:08.688Z,4.75
2023-01-19T06:23:36.954Z,4.70
2023-01-19T06:26:04.303Z,4.80
2023-01-19T06:28:31.470Z,5.22
2023-01-19T06:30:58.738Z,4.78
2023-01-19T06:33:28.103Z,4.70
2023-01-19T06:35:55.600Z,4.65
2023-01-19T06:38:23.415Z,4.35
2023-01-19T06:41:00.096Z,4.70
2023-01-19T06:43:27.326Z,4.75
2023-01-19T06:45:54.985Z,4.47
2023-01-19T06:48:22.759Z,4.70
2023-01-19T06:50:51.103Z,4.88
2023-01-19T06:53:20.855Z,4.68
2023-01-19T06:55:48.077Z,4.88
2023-01-19T06:58:16.188Z,4.60
2023-01-19T07:00:43.500Z,4.28
2023-01-19T07:03:20.512Z,4.10
2023-01-19T07:05:50.997Z,4.50
2023-01-19T07:08:18.236Z,4.50
2023-01-19T07:11:26.905Z,4.20
2023-01-19T07:13:33.911Z,4.55
2023-01-19T07:16:09.138Z,4.47
2023-01-19T07:18:38.075Z,4.35
2023-01-19T07:21:06.421Z,3.90
2023-01-19T07:23:34.208Z,4.30
2023-01-19T07:26:02.024Z,4.20
2023-01-19T07:28:30.181Z,4.20
2023-01-19T07:30:57.622Z,4.35
2023-01-19T07:33:28.768Z,4.43
2023-01-19T07:35:55.986Z,4.93
2023-01-19T07:38:23.065Z,4.80
2023-01-19T07:40:50.210Z,4.55
2023-01-19T07:43:17.372Z,5.45
2023-01-19T07:45:45.348Z,5.95
2023-01-19T07:48:12.463Z,5.07
2023-01-19T07:50:39.512Z,5.13
2023-01-19T07:53:08.358Z,11.75
2023-01-19T07:55:36.322Z,15.82
2023-01-19T07:58:06.734Z,12.00
2023-01-19T08:00:35.531Z,9.50
2023-01-19T08:03:05.198Z,7.53
2023-01-19T08:05:33.299Z,7.30
2023-01-19T08:08:00.726Z,6.22
2023-01-19T08:10:29.195Z,5.97
2023-01-19T08:12:57.548Z,5.63
2023-01-19T08:15:25.723Z,5.60
2023-01-19T08:17:58.154Z,5.15
2023-01-19T08:20:27.111Z,5.53
2023-01-19T08:23:02.869Z,5.18
2023-01-19T08:25:38.725Z,5.78
2023-01-19T08:28:07.589Z,5.80
2023-01-19T08:30:35.701Z,6.07
2023-01-19T08:33:08.227Z,5.90
2023-01-19T08:35:44.513Z,5.55
2023-01-19T08:38:11.766Z,5.88
2023-01-19T08:40:41.327Z,6.03
2023-01-19T08:43:15.439Z,6.22
2023-01-19T08:45:48.254Z,6.15
2023-01-19T08:48:18.586Z,6.70
2023-01-19T08:50:50.392Z,6.50
2023-01-19T08:53:23.268Z,5.55
2023-01-19T08:55:50.934Z,6.40
2023-01-19T08:58:18.399Z,5.35
2023-01-19T09:00:45.657Z,5.80
2023-01-19T09:03:13.979Z,5.55
2023-01-19T09:05:41.126Z,6.28
2023-01-19T09:08:13.833Z,6.20
2023-01-19T09:10:47.190Z,5.72
2023-01-19T09:13:14.967Z,6.20
2023-01-19T09:15:43.593Z,6.07
2023-01-19T09:18:15.643Z,6.03
2023-01-19T09:20:45.310Z,6.47
2023-01-19T09:23:16.708Z,6.25
2023-01-19T09:25:46.358Z,5.88
2023-01-19T09:28:16.188Z,6.05
2023-01-19T09:30:44.416Z,6.38
2023-01-19T09:33:15.271Z,6.90
2023-01-19T09:35:45.046Z,6.63
2023-01-19T09:38:12.720Z,5.63
2023-01-19T09:40:52.828Z,5.70
2023-01-19T09:43:34.847Z,5.90
2023-01-19T09:46:26.116Z,6.15
2023-01-19T09:48:59.092Z,5.65
2023-01-19T09:51:29.626Z,5.95
2023-01-19T09:54:03.573Z,6.35
2023-01-19T09:56:32.253Z,6.65
2023-01-19T09:59:03.444Z,6.60
2023-01-19T10:01:45.588Z,5.78
2023-01-19T10:04:40.864Z,5.72
2023-01-19T10:07:30.682Z,5.50
2023-01-19T10:10:03.660Z,5.00
2023-01-19T10:13:11.561Z,5.68
2023-01-19T10:16:15.195Z,5.72
2023-01-19T10:18:48.565Z,5.50
2023-01-19T10:21:42.362Z,5.82
2023-01-19T10:24:41.890Z,5.72
2023-01-19T10:27:19.005Z,5.07
2023-01-19T10:29:46.587Z,5.93
2023-01-19T10:32:24.480Z,5.70
2023-01-19T10:34:53.140Z,5.35
2023-01-19T10:37:34.699Z,5.13
2023-01-19T10:40:11.232Z,5.20
2023-01-19T10:42:42.095Z,4.35
2023-01-19T10:45:25.956Z,4.32
2023-01-19T10:47:55.803Z,4.25
2023-01-19T10:50:37.251Z,4.03
2023-01-19T10:53:06.257Z,4.30
2023-01-19T10:55:41.791Z,4.50
2023-01-19T10:58:31.022Z,4.35
2023-01-19T11:01:18.546Z,4.13
2023-01-19T11:03:46.827Z,4.43
2023-01-19T11:06:30.587Z,3.90
2023-01-19T11:09:19.282Z,3.92
2023-01-19T11:11:52.010Z,3.72
2023-01-19T11:14:23.426Z,3.55
2023-01-19T11:16:55.586Z,3.97
2023-01-19T11:19:31.824Z,3.97
2023-01-19T11:22:27.023Z,3.83
2023-01-19T11:25:00.158Z,3.72
2023-01-19T11:27:28.353Z,4.00
2023-01-19T11:30:25.205Z,3.22
2023-01-19T11:32:53.580Z,3.13
2023-01-19T11:35:39.232Z,3.45
2023-01-19T11:38:17.236Z,3.47
2023-01-19T11:40:57.763Z,3.60
2023-01-19T11:43:39.724Z,3.80
2023-01-19T11:46:15.497Z,3.60
2023-01-19T11:49:06.359Z,3.70
2023-01-19T11:51:48.491Z,3.72
2023-01-19T11:54:28.155Z,4.22
2023-01-19T11:56:59.412Z,5.35
2023-01-19T11:59:26.682Z,4.78
2023-01-19T12:01:59.003Z,4.85
2023-01-19T12:04:32.915Z,5.10
2023-01-19T12:07:09.056Z,4.75
2023-01-19T12:10:26.348Z,5.10
2023-01-19T12:12:54.056Z,5.47
2023-01-19T12:15:36.537Z,4.90
2023-01-19T12:18:07.792Z,4.90
2023-01-19T12:20:40.728Z,3.97
2023-01-19T12:23:45.178Z,5.00
2023-01-19T12:26:35.523Z,4.15
2023-01-19T12:29:14.492Z,4.47
2023-01-19T12:31:45.138Z,4.07
2023-01-19T12:34:58.019Z,2.93
2023-01-19T12:37:30.606Z,2.63
2023-01-19T12:40:01.405Z,2.25
2023-01-19T12:42:29.638Z,2.40
2023-01-19T12:45:12.125Z,2.15
2023-01-19T12:47:39.376Z,2.85
2023-01-19T12:50:17.366Z,3.22
2023-01-19T12:52:58.576Z,3.50
2023-01-19T12:55:31.140Z,2.85
2023-01-19T12:58:22.736Z,3.30
2023-01-19T13:01:15.359Z,3.33
2023-01-19T13:04:03.190Z,3.22
2023-01-19T13:06:49.032Z,3.47
2023-01-19T13:09:37.012Z,12.25
2023-01-19T13:12:23.960Z,9.23
2023-01-19T13:14:51.818Z,5.93
2023-01-19T13:17:39.338Z,4.40
2023-01-19T13:20:45.078Z,3.40
2023-01-19T13:23:23.200Z,3.83
2023-01-19T13:26:14.949Z,5.70
2023-01-19T13:29:10.363Z,4.25
2023-01-19T13:31:41.027Z,3.15
2023-01-19T13:34:19.571Z,2.70
2023-01-19T13:36:52.113Z,2.35
2023-01-19T13:39:44.247Z,2.15
2023-01-19T13:42:34.103Z,2.10
2023-01-19T13:45:15.996Z,2.60
2023-01-19T13:47:49.274Z,2.50
2023-01-19T13:50:23.159Z,2.13
2023-01-19T13:52:53.964Z,2.15
2023-01-19T13:55:21.806Z,2.22
2023-01-19T13:57:51.156Z,2.38
2023-01-19T14:00:24.332Z,2.40
2023-01-19T14:03:01.388Z,2.20
2023-01-19T14:05:37.730Z,1.73
2023-01-19T14:08:13.633Z,1.85
2023-01-19T14:11:02.145Z,1.92
2023-01-19T14:13:34.774Z,2.03
2023-01-19T14:16:16.807Z,3.83
2023-01-19T14:18:44.363Z,3.95
2023-01-19T14:21:15.179Z,6.60
2023-01-19T14:24:09.093Z,6.35
2023-01-19T14:26:41.853Z,4.38
2023-01-19T14:29:29.083Z,4.15
2023-01-19T14:32:24.538Z,3.42
2023-01-19T14:35:04.421Z,2.67
2023-01-19T14:37:37.643Z,2.50
2023-01-19T14:40:20.979Z,2.45
2023-01-19T14:42:52.517Z,2.17
2023-01-19T14:45:29.092Z,2.53
2023-01-19T14:48:31.494Z,2.13
2023-01-19T14:51:04.493Z,2.60
2023-01-19T14:53:38.544Z,2.88
2023-01-19T14:56:07.411Z,2.42
2023-01-19T14:58:35.976Z,2.75
2023-01-19T15:01:05.027Z,2.35
2023-01-19T15:03:45.452Z,2.72
2023-01-19T15:06:21.448Z,2.60
2023-01-19T15:08:50.403Z,2.40
2023-01-19T15:11:34.250Z,2.58
2023-01-19T15:14:02.691Z,2.50
2023-01-19T15:16:32.580Z,2.20
2023-01-19T15:18:59.755Z,2.15
2023-01-19T15:21:27.015Z,2.92
2023-01-19T15:23:55.304Z,2.83
2023-01-19T15:26:25.645Z,3.15
2023-01-19T15:28:53.971Z,2.20
2023-01-19T15:31:26.255Z,2.47
2023-01-19T15:33:53.540Z,2.38
2023-01-19T15:36:24.370Z,2.53
2023-01-19T15:38:51.546Z,2.45
2023-01-19T15:41:27.157Z,2.17
2023-01-19T15:43:54.374Z,2.60
2023-01-19T15:46:22.235Z,2.45
2023-01-19T15:48:53.502Z,2.55
2023-01-19T15:51:25.198Z,3.17
2023-01-19T15:53:53.927Z,3.30
2023-01-19T15:56:24.778Z,3.10
2023-01-19T15:58:53.545Z,2.90
2023-01-19T16:01:23.502Z,2.70
2023-01-19T16:03:51.033Z,2.70
2023-01-19T16:06:18.307Z,2.50
2023-01-19T16:08:45.818Z,2.20
2023-01-19T16:11:16.010Z,2.50
2023-01-19T16:13:47.174Z,2.53
2023-01-19T16:16:21.620Z,2.67
2023-01-19T16:18:49.460Z,2.80
2023-01-19T16:21:16.803Z,2.92
2023-01-19T16:23:43.904Z,2.63
2023-01-19T16:26:31.179Z,2.65
2023-01-19T16:29:01.294Z,2.53
2023-01-19T16:31:29.555Z,2.53
2023-01-19T16:33:56.683Z,2.80
2023-01-19T16:36:33.915Z,3.10
2023-01-19T16:39:07.721Z,2.47
2023-01-19T16:41:35.814Z,2.97
2023-01-19T16:44:04.132Z,3.00
2023-01-19T16:46:35.523Z,2.95
2023-01-19T16:49:10.198Z,2.65
2023-01-19T16:51:37.256Z,2.60
2023-01-19T16:54:04.601Z,2.80
2023-01-19T16:56:31.716Z,2.80
2023-01-19T16:58:59.861Z,2.80
2023-01-19T17:01:29.367Z,3.30
2023-01-19T17:03:57.015Z,13.27
2023-01-19T17:06:25.173Z,12.75
2023-01-19T17:08:53.001Z,12.48
2023-01-19T17:11:32.142Z,14.60
2023-01-19T17:14:01.940Z,11.98
2023-01-19T17:16:31.219Z,10.07
2023-01-19T17:19:00.567Z,8.82
2023-01-19T17:21:28.125Z,7.25
2023-01-19T17:23:58.244Z,6.78
2023-01-19T17:26:28.490Z,6.65
2023-01-19T17:29:04.959Z,6.20
2023-01-19T17:31:33.487Z,9.23
2023-01-19T17:34:01.045Z,7.75
2023-01-19T17:36:30.834Z,7.28
2023-01-19T17:39:01.089Z,10.02
2023-01-19T17:41:32.559Z,7.60
2023-01-19T17:44:04.971Z,6.90
2023-01-19T17:46:36.708Z,5.30
2023-01-19T17:49:06.937Z,6.20
2023-01-19T17:51:34.546Z,6.63
2023-01-19T17:54:01.913Z,8.73
2023-01-19T17:56:36.870Z,7.90
2023-01-19T17:59:06.659Z,5.85
2023-01-19T18:01:38.323Z,4.90
2023-01-19T18:04:06.418Z,5.10
2023-01-19T18:06:33.931Z,5.03
2023-01-19T18:09:01.202Z,3.95
2023-01-19T18:11:28.454Z,3.83
2023-01-19T18:13:56.113Z,3.80
2023-01-19T18:16:28.592Z,3.75
2023-01-19T18:18:57.427Z,3.83
2023-01-19T18:21:28.212Z,5.95
2023-01-19T18:24:02.443Z,7.72
2023-01-19T18:26:31.259Z,7.97
2023-01-19T18:28:59.281Z,7.55
2023-01-19T18:31:28.068Z,6.57
2023-01-19T18:33:55.202Z,6.00
2023-01-19T18:36:22.903Z,4.90
2023-01-19T18:38:50.166Z,4.72
2023-01-19T18:41:20.424Z,5.43
2023-01-19T18:43:48.035Z,4.97
2023-01-19T18:46:15.971Z,5.70
2023-01-19T18:48:43.134Z,5.85
2023-01-19T18:51:13.759Z,6.50
2023-01-19T18:53:41.287Z,6.23
2023-01-19T18:56:12.078Z,5.55
2023-01-19T18:58:40.054Z,5.40
2023-01-19T19:01:24.714Z,5.28
2023-01-19T19:03:52.537Z,5.60
2023-01-19T19:06:21.012Z,5.85
2023-01-19T19:08:55.065Z,6.07
2023-01-19T19:11:24.382Z,5.30
2023-01-19T19:14:01.014Z,4.90
2023-01-19T19:16:29.644Z,5.10
2023-01-19T19:18:56.984Z,4.47
2023-01-19T19:21:25.623Z,5.40
2023-01-19T19:23:55.522Z,4.85
2023-01-19T19:26:24.509Z,4.63
2023-01-19T19:28:51.667Z,4.65
2023-01-19T19:31:21.789Z,4.65
2023-01-19T19:33:50.989Z,4.22
2023-01-19T19:36:19.998Z,4.13
2023-01-19T19:38:48.730Z,3.47
2023-01-19T19:41:20.414Z,3.40
2023-01-19T19:43:47.483Z,3.25
2023-01-19T19:46:19.204Z,2.65
2023-01-19T19:48:48.238Z,2.63
2023-01-19T19:51:25.716Z,2.80
2023-01-19T19:53:55.300Z,3.13
2023-01-19T19:56:24.753Z,3.40
2023-01-19T19:58:54.323Z,4.05
2023-01-19T20:01:32.626Z,3.83
2023-01-19T20:04:08.245Z,3.90
2023-01-19T20:06:39.910Z,4.18
2023-01-19T20:09:10.659Z,4.15
2023-01-19T20:11:37.856Z,4.05
2023-01-19T20:14:10.701Z,3.67
2023-01-19T20:16:38.575Z,3.97
2023-01-19T20:19:06.273Z,3.78
2023-01-19T20:21:37.095Z,4.13
2023-01-19T20:24:08.947Z,4.03
2023-01-19T20:26:40.491Z,3.58
2023-01-19T20:31:43.259Z,3.08
2023-01-19T20:34:13.197Z,3.13
2023-01-19T20:36:41.428Z,3.10
2023-01-19T20:39:10.501Z,3.40
2023-01-19T20:41:43.381Z,3.40
2023-01-19T20:44:19.600Z,3.38
2023-01-19T20:46:47.150Z,3.50
2023-01-19T20:49:14.339Z,3.78
2023-01-19T20:51:43.535Z,3.25
2023-01-19T20:54:17.160Z,3.75
2023-01-19T20:56:44.659Z,3.60
2023-01-19T20:59:12.730Z,3.45
2023-01-19T21:01:41.123Z,3.58
2023-01-19T21:04:09.660Z,3.13
2023-01-19T21:06:37.447Z,3.70
2023-01-19T21:09:04.974Z,3.90
2023-01-19T21:11:32.103Z,4.13
2023-01-19T21:13:59.270Z,3.70
2023-01-19T21:16:30.588Z,3.50
2023-01-19T21:21:31.433Z,3.13
2023-01-19T21:24:01.946Z,3.25
2023-01-19T21:26:30.431Z,2.90
2023-01-19T21:28:59.737Z,3.33
2023-01-19T21:31:28.193Z,3.28
2023-01-19T21:33:56.946Z,3.58
2023-01-19T21:36:25.285Z,3.42
2023-01-19T21:38:52.896Z,2.88
2023-01-19T21:41:20.219Z,3.08
2023-01-19T21:43:47.648Z,3.03
2023-01-19T21:46:29.673Z,2.63
2023-01-19T21:49:03.321Z,2.72
2023-01-19T21:51:35.543Z,2.92
2023-01-19T21:54:05.304Z,3.38
2023-01-19T21:56:32.931Z,3.38
2023-01-19T21:59:04.385Z,3.08
2023-01-19T22:04:00.384Z,2.80
2023-01-19T22:06:28.644Z,3.00
2023-01-19T22:08:58.039Z,3.03
2023-01-19T22:11:25.451Z,3.35
2023-01-19T22:13:53.115Z,3.40
2023-01-19T22:16:22.823Z,3.58
2023-01-19T22:18:54.059Z,3.33
2023-01-19T22:21:25.231Z,3.67
2023-01-19T22:23:55.972Z,3.72
2023-01-19T22:26:24.003Z,3.70
2023-01-19T22:28:59.139Z,3.95
2023-01-19T22:31:28.668Z,3.53
2023-01-19T22:33:56.853Z,3.67
2023-01-19T22:36:34.171Z,3.80
2023-01-19T22:39:05.532Z,3.80
2023-01-19T22:41:46.854Z,4.00
2023-01-19T22:44:23.591Z,3.55
2023-01-19T22:46:54.683Z,3.47
2023-01-19T22:49:22.000Z,3.85
2023-01-19T22:51:49.438Z,3.60
2023-01-19T22:54:16.559Z,3.83
2023-01-19T22:56:43.734Z,4.00
2023-01-19T22:59:11.031Z,3.90
2023-01-19T23:01:41.878Z,3.70
2023-01-19T23:04:13.997Z,3.53
2023-01-19T23:06:41.211Z,3.55
2023-01-19T23:09:13.337Z,3.67
2023-01-19T23:11:43.865Z,3.45
2023-01-19T23:14:20.905Z,3.90
2023-01-19T23:16:48.345Z,3.65
2023-01-19T23:19:17.261Z,3.60
2023-01-19T23:21:44.952Z,4.07
2023-01-19T23:24:12.610Z,3.55
2023-01-19T23:26:39.804Z,3.58
2023-01-19T23:29:15.817Z,4.18
2023-01-19T23:31:46.845Z,3.88
2023-01-19T23:34:14.888Z,3.33
2023-01-19T23:36:43.046Z,4.03
2023-01-19T23:39:22.042Z,3.67
2023-01-19T23:41:50.089Z,3.50
2023-01-19T23:44:17.880Z,3.97
2023-01-19T23:46:45.851Z,3.95
2023-01-19T23:49:13.842Z,3.85
2023-01-19T23:51:41.852Z,3.72
2023-01-19T23:54:09.071Z,4.32
2023-01-19T23:56:38.506Z,4.25
2023-01-19T23:59:16.546Z,4.72
